Bayou Meto, Arkansas
Current Conditions -  °F | °C
As of 3:35 PM on Thursday 18 Dec 2014 (Local Time) from KSGT Reporting Station
Overcast Overcast  
Wind Chill: 39°   Ceiling: 800
Heat Index: 43°   Visibility: NA
Dew Point: 39°   Wind: 6mph
Humidity: 87%   Direction: 20°NNE
Pressure: 30.19"   Gusts: NA
Location:  34.3615°N, 91.5213°W
Report Text: KSGT 182135Z 02005KT OVC008 06/04 A3019 RMK AO1
Loading
Personal Weather Stations






























Interactive Weather Map New forecast layout! Learn more

10-Day Weather Forecast

Advertisements
Track Severe Weather on mobile